Herscher, Illinois
Current Conditions -  °F | °C
As of 9:35 AM on Monday 20 Oct 2014 (Local Time) from KIKK Reporting Station
Clear Clear  
Wind Chill: 55°   Ceiling: Unl
Heat Index: 55°   Visibility: 10mi
Dew Point: 48°   Wind: 12mph
Humidity: 77%   Direction: 280°W
Pressure: 29.87"   Gusts: NA
Location:  41.05°N, 88.1°W
Report Text: KIKK 201435Z AUTO 28010KT 10SM CLR 13/09 A2987 RMK AO2 T01270087
Loading
Personal Weather Stations






























Interactive Weather Map
Tropical Storm Tracking
New forecast layout! Learn more

10-Day Weather Forecast

Advertisements
Track Severe Weather on mobile